createdAt,value
2024-04-25T00:00:10.399Z,9.80
2024-04-25T00:02:37.094Z,10.77
2024-04-25T00:05:03.921Z,8.27
2024-04-25T00:07:30.586Z,10.32
2024-04-25T00:09:57.168Z,9.63
2024-04-25T00:12:23.835Z,9.57
2024-04-25T00:14:50.451Z,9.18
2024-04-25T00:17:18.196Z,10.20
2024-04-25T00:19:44.982Z,9.15
2024-04-25T00:22:11.627Z,9.73
2024-04-25T00:24:38.225Z,9.32
2024-04-25T00:27:04.823Z,10.00
2024-04-25T00:29:31.459Z,10.07
2024-04-25T00:31:58.119Z,11.20
2024-04-25T00:34:24.693Z,9.90
2024-04-25T00:36:51.425Z,9.10
2024-04-25T00:39:18.072Z,10.20
2024-04-25T00:41:44.805Z,9.35
2024-04-25T00:44:11.500Z,11.18
2024-04-25T00:46:40.908Z,10.75
2024-04-25T00:49:10.661Z,9.60
2024-04-25T00:51:39.078Z,8.77
2024-04-25T00:54:06.002Z,11.55
2024-04-25T00:56:33.908Z,11.10
2024-04-25T00:59:01.562Z,10.38
2024-04-25T01:01:28.527Z,11.00
2024-04-25T01:04:00.931Z,9.70
2024-04-25T01:06:32.427Z,10.20
2024-04-25T01:08:59.899Z,10.63
2024-04-25T01:11:28.804Z,12.10
2024-04-25T01:13:56.117Z,10.68
2024-04-25T01:16:22.775Z,11.35
2024-04-25T01:18:49.434Z,11.93
2024-04-25T01:21:16.050Z,11.43
2024-04-25T01:23:45.157Z,11.40
2024-04-25T01:26:13.449Z,11.73
2024-04-25T01:28:42.420Z,10.57
2024-04-25T01:31:09.854Z,9.50
2024-04-25T01:33:38.286Z,11.38
2024-04-25T01:36:05.647Z,11.38
2024-04-25T01:38:32.316Z,11.65
2024-04-25T01:40:58.924Z,11.13
2024-04-25T01:43:25.546Z,10.35
2024-04-25T01:45:52.164Z,12.35
2024-04-25T01:48:18.879Z,10.70
2024-04-25T01:50:45.647Z,11.18
2024-04-25T01:53:12.321Z,11.45
2024-04-25T01:55:38.970Z,10.68
2024-04-25T01:58:05.632Z,10.70
2024-04-25T02:00:32.890Z,10.50
2024-04-25T02:02:59.561Z,11.75
2024-04-25T02:05:26.252Z,9.88
2024-04-25T02:07:52.907Z,10.70
2024-04-25T02:10:19.603Z,8.00
2024-04-25T02:12:46.284Z,8.48
2024-04-25T02:15:13.110Z,9.02
2024-04-25T02:17:41.331Z,10.80
2024-04-25T02:20:27.447Z,9.13
2024-04-25T02:23:13.244Z,11.00
2024-04-25T02:25:39.858Z,10.10
2024-04-25T02:28:06.500Z,10.63
2024-04-25T02:30:33.157Z,9.73
2024-04-25T02:32:59.817Z,9.38
2024-04-25T02:35:26.723Z,9.88
2024-04-25T02:37:53.456Z,8.45
2024-04-25T02:40:20.080Z,8.63
2024-04-25T02:42:46.717Z,9.52
2024-04-25T02:45:13.383Z,8.07
2024-04-25T02:47:40.086Z,9.15
2024-04-25T02:50:08.852Z,10.32
2024-04-25T02:52:35.498Z,7.68
2024-04-25T02:55:02.438Z,8.77
2024-04-25T02:57:29.019Z,8.00
2024-04-25T02:59:55.611Z,8.05
2024-04-25T03:02:22.304Z,9.35
2024-04-25T03:04:49.038Z,8.15
2024-04-25T03:07:15.637Z,7.68
2024-04-25T03:09:42.224Z,8.93
2024-04-25T03:12:08.905Z,9.32
2024-04-25T03:14:35.536Z,8.63
2024-04-25T03:17:02.229Z,8.32
2024-04-25T03:19:28.817Z,8.50
2024-04-25T03:21:55.436Z,9.05
2024-04-25T03:24:22.021Z,8.40
2024-04-25T03:26:48.714Z,10.00
2024-04-25T03:29:15.384Z,9.38
2024-04-25T03:31:42.035Z,8.65
2024-04-25T03:34:08.620Z,9.88
2024-04-25T03:36:35.246Z,9.82
2024-04-25T03:39:01.900Z,6.10
2024-04-25T03:41:29.141Z,9.30
2024-04-25T03:43:55.845Z,8.27
2024-04-25T03:46:22.474Z,7.95
2024-04-25T03:48:49.470Z,8.73
2024-04-25T03:51:16.138Z,8.13
2024-04-25T03:53:42.877Z,8.48
2024-04-25T03:56:09.462Z,7.68
2024-04-25T03:58:36.086Z,8.82
2024-04-25T04:01:02.796Z,7.55
2024-04-25T04:03:29.515Z,6.90
2024-04-25T04:05:56.135Z,7.30
2024-04-25T04:08:23.615Z,7.03
2024-04-25T04:10:50.388Z,5.38
2024-04-25T04:13:17.152Z,5.30
2024-04-25T04:15:43.842Z,6.00
2024-04-25T04:18:10.855Z,8.15
2024-04-25T04:20:37.542Z,5.93
2024-04-25T04:23:04.391Z,6.10
2024-04-25T04:25:31.017Z,7.78
2024-04-25T04:27:57.634Z,7.25
2024-04-25T04:30:24.223Z,7.20
2024-04-25T04:32:50.948Z,8.10
2024-04-25T04:35:17.613Z,8.27
2024-04-25T04:37:44.252Z,11.52
2024-04-25T04:40:11.429Z,8.70
2024-04-25T04:42:38.525Z,11.15
2024-04-25T04:45:05.359Z,10.57
2024-04-25T04:47:32.111Z,9.70
2024-04-25T04:49:58.787Z,9.40
2024-04-25T04:52:27.117Z,9.30
2024-04-25T04:54:53.721Z,10.40
2024-04-25T04:57:20.416Z,10.13
2024-04-25T04:59:47.038Z,11.10
2024-04-25T05:02:13.662Z,9.70
2024-04-25T05:04:40.340Z,8.82
2024-04-25T05:07:06.944Z,5.38
2024-04-25T05:09:35.348Z,7.97
2024-04-25T05:12:02.121Z,7.10
2024-04-25T05:14:28.820Z,8.20
2024-04-25T05:16:55.540Z,5.78
2024-04-25T05:19:22.242Z,7.50
2024-04-25T05:21:51.702Z,7.60
2024-04-25T05:24:18.350Z,7.90
2024-04-25T05:26:44.973Z,7.65
2024-04-25T05:29:11.716Z,8.23
2024-04-25T05:31:38.326Z,6.53
2024-04-25T05:34:05.197Z,5.88
2024-04-25T05:36:31.836Z,5.78
2024-04-25T05:38:58.535Z,7.53
2024-04-25T05:41:25.389Z,5.07
2024-04-25T05:43:52.595Z,6.00
2024-04-25T05:46:22.103Z,5.15
2024-04-25T05:48:48.812Z,6.65
2024-04-25T05:51:19.474Z,8.05
2024-04-25T05:53:46.190Z,6.45
2024-04-25T05:56:12.922Z,8.30
2024-04-25T05:58:43.278Z,5.40
2024-04-25T06:01:11.100Z,4.82
2024-04-25T06:03:37.846Z,5.00
2024-04-25T06:06:04.685Z,6.38
2024-04-25T06:08:31.459Z,5.25
2024-04-25T06:10:58.149Z,5.53
2024-04-25T06:13:24.838Z,6.20
2024-04-25T06:15:53.887Z,5.75
2024-04-25T06:18:20.545Z,5.25
2024-04-25T06:20:47.284Z,6.32
2024-04-25T06:23:14.307Z,6.63
2024-04-25T06:25:42.445Z,6.32
2024-04-25T06:28:10.095Z,4.43
2024-04-25T06:30:36.797Z,5.10
2024-04-25T06:33:03.679Z,4.28
2024-04-25T06:35:31.000Z,6.05
2024-04-25T06:37:57.735Z,6.60
2024-04-25T06:40:24.420Z,5.82
2024-04-25T06:42:51.055Z,4.97
2024-04-25T06:45:18.492Z,3.75
2024-04-25T06:47:45.355Z,3.88
2024-04-25T06:50:12.108Z,4.80
2024-04-25T06:52:38.806Z,3.60
2024-04-25T06:55:06.018Z,6.20
2024-04-25T06:57:33.006Z,4.28
2024-04-25T06:59:59.722Z,5.10
2024-04-25T07:02:26.446Z,4.45
2024-04-25T07:04:53.765Z,4.40
2024-04-25T07:07:21.332Z,3.75
2024-04-25T07:09:48.255Z,4.35
2024-04-25T07:12:15.450Z,5.97
2024-04-25T07:14:42.206Z,3.22
2024-04-25T07:17:09.084Z,4.00
2024-04-25T07:19:35.767Z,3.60
2024-04-25T07:22:02.404Z,4.75
2024-04-25T07:24:30.306Z,3.80
2024-04-25T07:26:57.650Z,4.28
2024-04-25T07:29:24.359Z,4.28
2024-04-25T07:31:51.014Z,4.68
2024-04-25T07:34:17.672Z,5.00
2024-04-25T07:39:11.026Z,3.92
2024-04-25T07:41:37.834Z,3.78
2024-04-25T07:44:04.532Z,4.00
2024-04-25T07:46:31.579Z,5.32
2024-04-25T07:49:03.372Z,4.22
2024-04-25T07:51:30.173Z,4.22
2024-04-25T07:53:56.833Z,3.95
2024-04-25T07:56:23.570Z,3.78
2024-04-25T07:58:50.203Z,4.20
2024-04-25T08:01:19.113Z,3.90
2024-04-25T08:03:46.150Z,3.10
2024-04-25T08:06:15.331Z,3.70
2024-04-25T08:08:42.084Z,2.92
2024-04-25T08:11:08.786Z,3.30
2024-04-25T08:13:35.480Z,3.80
2024-04-25T08:16:02.214Z,3.95
2024-04-25T08:18:29.504Z,4.57
2024-04-25T08:20:56.173Z,3.55
2024-04-25T08:23:22.824Z,4.25
2024-04-25T08:25:49.829Z,5.30
2024-04-25T08:28:16.453Z,3.20
2024-04-25T08:30:43.119Z,4.20
2024-04-25T08:33:10.370Z,3.47
2024-04-25T08:35:37.348Z,3.25
2024-04-25T08:38:04.395Z,3.60
2024-04-25T08:40:30.975Z,2.83
2024-04-25T08:42:58.867Z,4.47
2024-04-25T08:45:25.781Z,3.60
2024-04-25T08:47:54.222Z,3.80
2024-04-25T08:50:21.784Z,4.28
2024-04-25T08:52:50.473Z,3.45
2024-04-25T08:55:19.486Z,4.68
2024-04-25T08:57:46.244Z,4.75
2024-04-25T09:00:13.758Z,3.60
2024-04-25T09:02:42.803Z,3.75
2024-04-25T09:05:15.024Z,4.72
2024-04-25T09:07:42.270Z,5.38
2024-04-25T09:10:11.587Z,2.55
2024-04-25T09:12:43.615Z,4.47
2024-04-25T09:15:10.372Z,2.53
2024-04-25T09:17:39.417Z,3.03
2024-04-25T09:20:13.292Z,3.25
2024-04-25T09:22:43.116Z,2.92
2024-04-25T09:25:24.180Z,4.07
2024-04-25T09:27:53.842Z,3.25
2024-04-25T09:30:32.890Z,4.18
2024-04-25T09:33:09.349Z,4.50
2024-04-25T09:35:46.540Z,3.53
2024-04-25T09:38:13.183Z,4.32
2024-04-25T09:40:39.937Z,3.97
2024-04-25T09:43:06.921Z,3.53
2024-04-25T09:45:34.777Z,2.60
2024-04-25T09:48:05.936Z,2.78
2024-04-25T09:50:40.873Z,3.88
2024-04-25T09:53:17.571Z,3.38
2024-04-25T09:55:46.991Z,3.88
2024-04-25T09:58:39.086Z,4.40
2024-04-25T10:01:07.026Z,3.00
2024-04-25T10:03:34.834Z,3.33
2024-04-25T10:06:01.740Z,3.00
2024-04-25T10:08:28.779Z,3.88
2024-04-25T10:10:58.139Z,2.58
2024-04-25T10:13:26.848Z,2.30
2024-04-25T10:15:53.547Z,2.15
2024-04-25T10:18:20.536Z,2.72
2024-04-25T10:20:48.645Z,2.47
2024-04-25T10:23:15.533Z,2.22
2024-04-25T10:25:51.703Z,3.30
2024-04-25T10:28:19.611Z,3.15
2024-04-25T10:30:55.889Z,3.25
2024-04-25T10:33:23.528Z,3.00
2024-04-25T10:35:51.593Z,2.67
2024-04-25T10:38:24.506Z,2.97
2024-04-25T10:40:51.310Z,3.63
2024-04-25T10:43:18.755Z,2.25
2024-04-25T10:45:45.965Z,3.05
2024-04-25T10:48:12.865Z,3.10
2024-04-25T10:50:39.788Z,2.60
2024-04-25T10:53:06.549Z,2.53
2024-04-25T10:55:33.268Z,2.47
2024-04-25T10:58:10.662Z,3.28
2024-04-25T11:00:44.423Z,2.20
2024-04-25T11:03:14.291Z,2.58
2024-04-25T11:05:41.670Z,2.33
2024-04-25T11:08:08.422Z,2.08
2024-04-25T11:10:35.546Z,1.95
2024-04-25T11:13:02.915Z,2.55
2024-04-25T11:15:32.514Z,2.55
2024-04-25T11:18:07.294Z,2.35
2024-04-25T11:20:39.998Z,1.77
2024-04-25T11:23:17.742Z,2.13
2024-04-25T11:25:49.735Z,2.85
2024-04-25T11:28:18.644Z,2.55
2024-04-25T11:30:46.402Z,2.33
2024-04-25T11:33:13.308Z,2.25
2024-04-25T11:35:46.937Z,1.55
2024-04-25T11:38:14.418Z,2.08
2024-04-25T11:40:41.540Z,1.33
2024-04-25T11:43:08.395Z,1.88
2024-04-25T11:45:36.925Z,1.23
2024-04-25T11:48:06.866Z,1.80
2024-04-25T11:50:34.151Z,1.40
2024-04-25T11:53:02.846Z,2.08
2024-04-25T11:55:29.513Z,1.58
2024-04-25T11:57:56.203Z,1.30
2024-04-25T12:00:22.849Z,2.17
2024-04-25T12:02:49.601Z,1.30
2024-04-25T12:05:17.552Z,1.13
2024-04-25T12:07:45.841Z,1.92
2024-04-25T12:10:12.603Z,2.13
2024-04-25T12:12:39.346Z,1.90
2024-04-25T12:15:07.285Z,1.83
2024-04-25T12:17:34.132Z,1.52
2024-04-25T12:20:03.294Z,1.45
2024-04-25T12:22:29.899Z,1.75
2024-04-25T12:24:56.603Z,2.05
2024-04-25T12:27:23.349Z,1.50
2024-04-25T12:29:50.662Z,1.70
2024-04-25T12:32:17.466Z,2.00
2024-04-25T12:34:44.240Z,2.10
2024-04-25T12:37:10.967Z,2.30
2024-04-25T12:39:42.338Z,2.05
2024-04-25T12:44:36.290Z,2.47
2024-04-25T12:47:03.061Z,1.70
2024-04-25T12:49:33.825Z,1.75
2024-04-25T12:52:02.114Z,1.63
2024-04-25T12:54:28.968Z,1.75
2024-04-25T12:56:55.716Z,1.95
2024-04-25T12:59:23.364Z,2.83
2024-04-25T13:01:50.107Z,1.85
2024-04-25T13:04:16.974Z,1.38
2024-04-25T13:06:43.669Z,1.70
2024-04-25T13:09:10.304Z,2.10
2024-04-25T13:11:37.077Z,2.22
2024-04-25T13:14:03.864Z,1.65
2024-04-25T13:16:33.477Z,2.53
2024-04-25T13:19:00.397Z,1.98
2024-04-25T13:21:27.219Z,1.73
2024-04-25T13:23:54.525Z,1.50
2024-04-25T13:26:25.556Z,1.55
2024-04-25T13:28:52.272Z,1.00
2024-04-25T13:31:19.005Z,1.70
2024-04-25T13:33:45.792Z,1.70
2024-04-25T13:36:12.664Z,1.60
2024-04-25T13:38:39.468Z,2.00
2024-04-25T13:41:06.136Z,1.88
2024-04-25T13:43:32.837Z,1.83
2024-04-25T13:45:59.629Z,1.40
2024-04-25T13:48:26.626Z,1.77
2024-04-25T13:50:53.436Z,1.92
2024-04-25T13:53:20.946Z,1.80
2024-04-25T13:55:50.551Z,1.30
2024-04-25T13:58:17.642Z,1.67
2024-04-25T14:00:44.694Z,1.65
2024-04-25T14:03:11.729Z,2.00
2024-04-25T14:05:38.433Z,1.80
2024-04-25T14:08:05.568Z,1.92
2024-04-25T14:10:32.584Z,1.60
2024-04-25T14:12:59.295Z,2.15
2024-04-25T14:15:25.904Z,1.85
2024-04-25T14:17:52.707Z,1.67
2024-04-25T14:20:19.567Z,1.80
2024-04-25T14:22:46.226Z,2.00
2024-04-25T14:25:31.572Z,1.90
2024-04-25T14:28:16.763Z,2.00
2024-04-25T14:30:43.463Z,1.85
2024-04-25T14:33:10.334Z,1.80
2024-04-25T14:35:37.159Z,1.90
2024-04-25T14:38:03.880Z,1.58
2024-04-25T14:40:31.222Z,1.85
2024-04-25T14:42:57.996Z,1.90
2024-04-25T14:45:24.816Z,1.88
2024-04-25T14:47:51.714Z,1.83
2024-04-25T14:50:18.448Z,1.65
2024-04-25T14:52:45.154Z,1.70
2024-04-25T14:55:12.620Z,1.88
2024-04-25T14:57:39.347Z,1.95
2024-04-25T15:00:06.543Z,1.75
2024-04-25T15:02:33.280Z,2.45
2024-04-25T15:04:59.844Z,2.08
2024-04-25T15:07:26.471Z,2.10
2024-04-25T15:09:53.260Z,1.83
2024-04-25T15:12:19.964Z,1.92
2024-04-25T15:14:49.044Z,2.33
2024-04-25T15:17:18.188Z,1.90
2024-04-25T15:19:46.175Z,2.25
2024-04-25T15:22:13.013Z,1.88
2024-04-25T15:24:39.935Z,1.67
2024-04-25T15:27:06.718Z,1.65
2024-04-25T15:29:34.218Z,1.60
2024-04-25T15:32:00.851Z,1.73
2024-04-25T15:34:27.747Z,1.70
2024-04-25T15:36:54.408Z,1.65
2024-04-25T15:39:24.571Z,2.30
2024-04-25T15:47:30.580Z,1.83
2024-04-25T15:52:44.856Z,2.00
2024-04-25T16:00:44.087Z,1.83
2024-04-25T16:03:11.301Z,1.75
2024-04-25T16:05:38.506Z,1.70
2024-04-25T16:10:55.859Z,1.52
2024-04-25T16:13:36.548Z,1.42
2024-04-25T16:16:07.275Z,1.70
2024-04-25T16:26:39.684Z,1.55
2024-04-25T16:39:46.773Z,2.20
2024-04-25T16:42:20.809Z,2.17
2024-04-25T16:44:51.030Z,2.03
2024-04-25T16:47:25.414Z,2.67
2024-04-25T16:49:52.658Z,1.80
2024-04-25T16:55:03.154Z,1.60
2024-04-25T16:57:51.669Z,2.03
2024-04-25T17:00:27.695Z,1.38
2024-04-25T17:03:06.195Z,1.85
2024-04-25T17:05:45.741Z,1.95
2024-04-25T17:10:57.436Z,1.63
2024-04-25T17:13:24.133Z,2.10
2024-04-25T17:15:50.743Z,1.55
2024-04-25T17:18:19.727Z,1.48
2024-04-25T17:20:46.404Z,1.98
2024-04-25T17:23:15.597Z,1.48
2024-04-25T17:25:42.226Z,2.05
2024-04-25T17:28:08.923Z,2.38
2024-04-25T17:30:35.519Z,2.83
2024-04-25T17:33:02.441Z,1.98
2024-04-25T17:35:29.256Z,2.05
2024-04-25T17:37:55.886Z,1.88
2024-04-25T17:40:22.802Z,1.77
2024-04-25T17:42:49.519Z,1.75
2024-04-25T17:45:16.164Z,1.95
2024-04-25T17:47:42.952Z,2.08
2024-04-25T17:50:10.206Z,1.77
2024-04-25T17:52:37.049Z,1.92
2024-04-25T17:55:07.266Z,2.53
2024-04-25T17:57:34.947Z,1.88
2024-04-25T18:00:03.049Z,1.80
2024-04-25T18:02:33.319Z,2.35
2024-04-25T18:05:03.244Z,2.00
2024-04-25T18:07:32.219Z,2.05
2024-04-25T18:09:58.869Z,2.33
2024-04-25T18:12:25.460Z,1.90
2024-04-25T18:14:53.075Z,2.17
2024-04-25T18:17:20.323Z,1.60
2024-04-25T18:19:49.039Z,2.00
2024-04-25T18:22:23.493Z,1.92
2024-04-25T18:24:50.690Z,2.03
2024-04-25T18:27:19.889Z,1.77
2024-04-25T18:29:46.539Z,2.55
2024-04-25T18:32:13.343Z,2.35
2024-04-25T18:34:40.940Z,2.83
2024-04-25T18:37:09.771Z,2.22
2024-04-25T18:39:36.902Z,3.25
2024-04-25T18:42:06.280Z,3.25
2024-04-25T18:44:34.477Z,2.15
2024-04-25T18:47:01.119Z,2.60
2024-04-25T18:49:31.156Z,2.53
2024-04-25T18:51:59.857Z,3.10
2024-04-25T18:54:27.569Z,2.55
2024-04-25T18:56:54.760Z,2.40
2024-04-25T18:59:22.031Z,2.60
2024-04-25T19:01:48.874Z,2.22
2024-04-25T19:04:21.220Z,2.17
2024-04-25T19:06:50.425Z,3.25
2024-04-25T19:09:18.168Z,3.03
2024-04-25T19:11:44.776Z,2.90
2024-04-25T19:14:11.435Z,2.70
2024-04-25T19:16:38.086Z,2.63
2024-04-25T19:19:04.780Z,2.70
2024-04-25T19:21:50.113Z,2.78
2024-04-25T19:24:18.281Z,2.70
2024-04-25T19:26:46.568Z,2.25
2024-04-25T19:29:19.995Z,2.75
2024-04-25T19:31:48.790Z,3.05
2024-04-25T19:34:24.322Z,3.00
2024-04-25T19:36:52.409Z,2.65
2024-04-25T19:39:19.211Z,2.55
2024-04-25T19:41:49.001Z,2.50
2024-04-25T19:44:16.320Z,2.80
2024-04-25T19:46:43.276Z,2.47
2024-04-25T19:49:09.960Z,2.35
2024-04-25T19:51:40.515Z,1.88
2024-04-25T19:54:07.158Z,2.50
2024-04-25T19:56:33.832Z,2.85
2024-04-25T19:59:00.518Z,3.33
2024-04-25T20:01:27.182Z,3.38
2024-04-25T20:03:53.769Z,3.80
2024-04-25T20:06:20.632Z,2.65
2024-04-25T20:08:47.484Z,2.97
2024-04-25T20:11:14.243Z,2.78
2024-04-25T20:13:41.927Z,3.08
2024-04-25T20:16:18.630Z,2.53
2024-04-25T20:19:04.031Z,2.30
2024-04-25T20:21:31.311Z,2.78
2024-04-25T20:24:00.450Z,2.85
2024-04-25T20:26:29.982Z,2.10
2024-04-25T20:28:56.710Z,2.20
2024-04-25T20:31:24.325Z,3.05
2024-04-25T20:33:51.126Z,2.50
2024-04-25T20:36:17.898Z,2.55
2024-04-25T20:38:46.148Z,3.33
2024-04-25T20:41:13.535Z,2.38
2024-04-25T20:43:40.363Z,2.85
2024-04-25T20:46:08.112Z,2.80
2024-04-25T20:48:35.085Z,3.42
2024-04-25T20:51:02.221Z,3.83
2024-04-25T20:53:28.932Z,2.97
2024-04-25T20:55:57.921Z,2.75
2024-04-25T20:58:27.482Z,2.80
2024-04-25T21:00:56.039Z,2.95
2024-04-25T21:03:22.835Z,2.90
2024-04-25T21:05:49.644Z,3.08
2024-04-25T21:08:16.463Z,3.05
2024-04-25T21:10:43.154Z,3.13
2024-04-25T21:13:09.754Z,2.42
2024-04-25T21:15:36.398Z,3.08
2024-04-25T21:18:03.122Z,2.63
2024-04-25T21:20:30.752Z,2.72
2024-04-25T21:22:57.388Z,2.78
2024-04-25T21:25:24.031Z,2.45
2024-04-25T21:27:50.659Z,2.60
2024-04-25T21:30:17.306Z,2.45
2024-04-25T21:32:45.400Z,3.33
2024-04-25T21:35:12.411Z,2.42
2024-04-25T21:37:40.029Z,2.17
2024-04-25T21:40:07.066Z,2.45
2024-04-25T21:42:33.888Z,2.47
2024-04-25T21:45:01.238Z,2.05
2024-04-25T21:47:28.081Z,2.35
2024-04-25T21:49:54.870Z,2.58
2024-04-25T21:52:21.486Z,2.38
2024-04-25T21:54:48.146Z,2.65
2024-04-25T21:57:18.678Z,2.33
2024-04-25T21:59:45.805Z,2.05
2024-04-25T22:02:12.529Z,2.20
2024-04-25T22:04:39.177Z,2.85
2024-04-25T22:07:05.877Z,3.28
2024-04-25T22:09:32.492Z,2.47
2024-04-25T22:11:59.302Z,2.60
2024-04-25T22:14:26.143Z,2.35
2024-04-25T22:16:52.938Z,3.00
2024-04-25T22:19:19.734Z,3.03
2024-04-25T22:21:50.446Z,2.80
2024-04-25T22:24:19.127Z,2.60
2024-04-25T22:26:47.288Z,2.00
2024-04-25T22:29:13.909Z,2.85
2024-04-25T22:31:40.541Z,2.83
2024-04-25T22:34:07.249Z,2.53
2024-04-25T22:36:33.890Z,2.60
2024-04-25T22:39:00.803Z,2.70
2024-04-25T22:41:27.594Z,2.40
2024-04-25T22:43:54.248Z,2.90
2024-04-25T22:46:20.862Z,2.60
2024-04-25T22:48:47.648Z,2.53
2024-04-25T22:51:17.003Z,2.53
2024-04-25T22:53:43.717Z,2.97
2024-04-25T22:56:10.603Z,2.80
2024-04-25T22:58:37.261Z,2.75
2024-04-25T23:01:04.238Z,2.72
2024-04-25T23:03:31.936Z,2.35
2024-04-25T23:05:58.866Z,2.95
2024-04-25T23:08:25.727Z,2.78
2024-04-25T23:10:52.429Z,2.67
2024-04-25T23:13:19.067Z,3.08
2024-04-25T23:15:45.794Z,2.92
2024-04-25T23:18:12.679Z,2.75
2024-04-25T23:20:39.489Z,3.13
2024-04-25T23:23:06.819Z,2.63
2024-04-25T23:25:33.421Z,2.65
2024-04-25T23:28:00.052Z,2.42
2024-04-25T23:30:26.669Z,2.08
2024-04-25T23:32:53.592Z,2.42
2024-04-25T23:35:20.569Z,3.05
2024-04-25T23:37:47.305Z,2.83
2024-04-25T23:40:14.037Z,2.70
2024-04-25T23:42:41.492Z,2.22
2024-04-25T23:45:08.649Z,2.53
2024-04-25T23:47:35.409Z,2.75
2024-04-25T23:50:02.463Z,2.20
2024-04-25T23:52:29.165Z,3.25
2024-04-25T23:54:55.798Z,2.20
2024-04-25T23:57:22.534Z,2.72
2024-04-25T23:59:49.237Z,2.50
